Time;durP1;ratioP1;P1;durP2;ratioP2;P2;SDS_P1;SDS_P2;PMS_P1;PMS_P2;Temp;Humidity;BMP_temperature;BMP_pressure;BME280_temperature;BME280_humidity;BME280_pressure;Samples;Min_cycle;Max_cycle;Signal;HPM_P1;HPM_P2
2022/11/05 00:10:43;;;;;;;23.80;11.88;;;;;;;;;;5011677;28;20064;-61
2022/11/05 00:18:38;;;;;;;22.15;11.20;;;;;;;;;;5011653;28;20056;-61
2022/11/05 00:25:12;;;;;;;24.08;12.45;;;;;;;;;;5009938;28;20476;-60
2022/11/05 00:26:34;;;;;;;26.95;12.57;;;;;;;;;;5010802;28;20087;-60
2022/11/05 00:28:59;;;;;;;27.10;13.27;;;;;;;;;;5011355;28;20608;-60
2022/11/05 00:31:24;;;;;;;26.30;13.70;;;;;;;;;;5010707;28;20042;-61
2022/11/05 00:33:50;;;;;;;28.85;13.93;;;;;;;;;;5011517;28;20439;-61
2022/11/05 00:36:15;;;;;;;29.52;14.23;;;;;;;;;;4988770;28;20034;-60
2022/11/05 00:38:40;;;;;;;27.33;13.82;;;;;;;;;;4979780;28;20551;-61
2022/11/05 00:41:06;;;;;;;30.20;13.38;;;;;;;;;;5003949;28;20042;-62
2022/11/05 00:46:16;;;;;;;23.42;12.40;;;;;;;;;;4992167;28;20044;-61
2022/11/05 00:51:25;;;;;;;21.63;11.38;;;;;;;;;;5003995;28;20493;-60
2022/11/05 00:53:50;;;;;;;20.85;11.20;;;;;;;;;;4979264;28;20038;-62
2022/11/05 00:56:15;;;;;;;22.40;11.38;;;;;;;;;;4984233;28;20463;-61
2022/11/05 00:58:41;;;;;;;22.30;11.32;;;;;;;;;;4990913;28;20042;-63
2022/11/05 01:01:06;;;;;;;22.30;12.02;;;;;;;;;;4985764;28;20044;-59
2022/11/05 01:03:37;;;;;;;27.40;12.50;;;;;;;;;;4992348;28;20029;-60
2022/11/05 01:06:09;;;;;;;20.30;12.00;;;;;;;;;;4979601;28;20057;-60
2022/11/05 01:08:35;;;;;;;22.30;11.82;;;;;;;;;;4972035;28;20046;-61
2022/11/05 01:11:10;;;;;;;24.77;11.75;;;;;;;;;;4981146;28;20057;-60
2022/11/05 01:13:37;;;;;;;24.33;12.40;;;;;;;;;;4972599;28;20054;-61
2022/11/05 01:16:08;;;;;;;26.95;12.50;;;;;;;;;;4988652;28;20294;-61
2022/11/05 01:18:36;;;;;;;24.05;11.25;;;;;;;;;;4978676;28;20093;-63
2022/11/05 01:21:12;;;;;;;23.30;11.40;;;;;;;;;;4977283;28;20114;-61
2022/11/05 01:23:38;;;;;;;25.60;11.48;;;;;;;;;;4975996;28;20514;-61
2022/11/05 01:26:03;;;;;;;24.85;11.90;;;;;;;;;;4986332;28;20546;-60
2022/11/05 01:28:28;;;;;;;22.75;11.75;;;;;;;;;;4975996;28;20031;-59
2022/11/05 01:30:55;;;;;;;22.48;11.52;;;;;;;;;;4991203;28;20030;-62
2022/11/05 01:33:20;;;;;;;25.88;12.43;;;;;;;;;;4996675;28;20030;-61
2022/11/05 01:35:46;;;;;;;26.70;12.98;;;;;;;;;;4979262;28;20051;-61
2022/11/05 01:38:11;;;;;;;26.90;12.77;;;;;;;;;;4980325;28;20113;-62
2022/11/05 01:40:41;;;;;;;26.45;12.50;;;;;;;;;;5004047;28;20471;-61
2022/11/05 01:43:15;;;;;;;26.75;12.30;;;;;;;;;;4995121;28;20550;-61
2022/11/05 01:45:41;;;;;;;26.77;13.18;;;;;;;;;;4993150;28;20034;-61
2022/11/05 01:48:19;;;;;;;28.52;13.27;;;;;;;;;;4983867;28;20033;-60
2022/11/05 01:50:56;;;;;;;24.98;13.52;;;;;;;;;;4989284;28;20035;-61
2022/11/05 01:53:49;;;;;;;27.77;12.55;;;;;;;;;;4981746;28;20151;-60
2022/11/05 01:56:23;;;;;;;26.00;12.23;;;;;;;;;;4988139;28;20038;-61
2022/11/05 01:58:57;;;;;;;29.55;12.35;;;;;;;;;;4992835;28;20036;-60
2022/11/05 02:01:23;;;;;;;23.67;11.60;;;;;;;;;;4984969;28;20038;-60
2022/11/05 02:03:54;;;;;;;23.55;11.80;;;;;;;;;;4995315;28;20058;-60
2022/11/05 02:06:20;;;;;;;24.38;12.18;;;;;;;;;;5010586;28;20037;-60
2022/11/05 02:08:56;;;;;;;29.42;12.55;;;;;;;;;;5008963;28;20037;-60
2022/11/05 02:11:21;;;;;;;27.73;12.35;;;;;;;;;;4976677;28;20399;-60
2022/11/05 02:13:48;;;;;;;28.02;12.07;;;;;;;;;;4975418;28;20034;-61
2022/11/05 02:16:21;;;;;;;24.80;12.88;;;;;;;;;;4999896;28;20035;-60
2022/11/05 02:18:55;;;;;;;27.27;13.32;;;;;;;;;;4975121;28;20042;-63
2022/11/05 02:21:39;;;;;;;27.55;12.98;;;;;;;;;;4978832;28;20372;-59
2022/11/05 02:24:10;;;;;;;27.67;13.50;;;;;;;;;;4974493;28;20047;-61
2022/11/05 02:26:59;;;;;;;;;;;;;;;;;;5004616;28;20080;-59
2022/11/05 02:29:42;;;;;;;24.98;11.75;;;;;;;;;;4981089;28;20412;-60
2022/11/05 02:32:26;;;;;;;26.17;12.35;;;;;;;;;;4984862;28;20036;-61
2022/11/05 02:35:20;;;;;;;21.90;11.68;;;;;;;;;;4994291;28;20034;-61
2022/11/05 02:37:52;;;;;;;24.63;12.77;;;;;;;;;;4983603;28;20120;-59
2022/11/05 02:40:27;;;;;;;26.30;13.32;;;;;;;;;;5008966;28;20076;-61
2022/11/05 02:43:19;;;;;;;25.60;12.60;;;;;;;;;;4975541;28;21988;-60
2022/11/05 02:45:57;;;;;;;23.65;12.43;;;;;;;;;;4990731;28;20035;-60
2022/11/05 02:48:33;;;;;;;22.63;11.57;;;;;;;;;;4976225;28;20026;-59
2022/11/05 02:51:22;;;;;;;26.60;12.50;;;;;;;;;;4988623;28;20030;-59
2022/11/05 02:54:23;;;;;;;25.58;12.27;;;;;;;;;;4985066;28;20053;-61
2022/11/05 02:56:52;;;;;;;25.50;12.55;;;;;;;;;;4961108;28;20054;-61
2022/11/05 02:59:17;;;;;;;28.85;13.32;;;;;;;;;;4989666;28;20479;-60
2022/11/05 03:01:45;;;;;;;31.08;13.52;;;;;;;;;;4981340;28;20030;-60
2022/11/05 03:04:14;;;;;;;29.48;13.23;;;;;;;;;;4984000;28;20352;-59
2022/11/05 03:07:00;;;;;;;24.85;12.65;;;;;;;;;;4980054;28;20058;-59
2022/11/05 03:09:34;;;;;;;25.25;12.93;;;;;;;;;;4998796;28;20095;-60
2022/11/05 03:12:14;;;;;;;21.75;12.20;;;;;;;;;;4991742;28;20467;-59
2022/11/05 03:15:01;;;;;;;23.30;11.80;;;;;;;;;;4975184;28;20030;-60
2022/11/05 03:17:56;;;;;;;26.73;12.10;;;;;;;;;;4985785;28;20360;-58
2022/11/05 03:20:38;;;;;;;26.85;12.70;;;;;;;;;;4974882;28;20097;-60
2022/11/05 03:23:26;;;;;;;23.73;12.77;;;;;;;;;;4984232;28;20038;-58
2022/11/05 03:26:02;;;;;;;23.27;11.63;;;;;;;;;;4974170;28;20031;-61
2022/11/05 03:28:33;;;;;;;23.25;11.70;;;;;;;;;;4987332;28;20030;-57
2022/11/05 03:31:00;;;;;;;27.65;12.18;;;;;;;;;;4990531;28;20369;-57
2022/11/05 03:33:30;;;;;;;24.52;12.75;;;;;;;;;;5006888;28;20042;-57
2022/11/05 03:35:59;;;;;;;22.85;12.38;;;;;;;;;;5010098;28;20107;-57
2022/11/05 03:38:36;;;;;;;24.60;12.13;;;;;;;;;;4990909;28;20734;-56
2022/11/05 03:41:05;;;;;;;31.90;13.13;;;;;;;;;;4983093;28;20042;-59
2022/11/05 03:43:34;;;;;;;24.83;13.15;;;;;;;;;;4994437;28;20493;-57
2022/11/05 03:46:05;;;;;;;26.00;12.88;;;;;;;;;;4976543;28;20041;-57
2022/11/05 03:48:33;;;;;;;31.25;13.40;;;;;;;;;;5001788;28;20033;-56
2022/11/05 03:51:10;;;;;;;24.60;12.63;;;;;;;;;;4979012;28;20035;-57
2022/11/05 03:53:44;;;;;;;27.88;12.57;;;;;;;;;;4988512;28;20410;-58
2022/11/05 03:56:17;;;;;;;24.35;12.07;;;;;;;;;;4988108;28;20944;-59
2022/11/05 03:58:44;;;;;;;23.23;12.10;;;;;;;;;;4984244;28;20037;-60
2022/11/05 04:01:11;;;;;;;21.63;11.80;;;;;;;;;;4996473;28;20519;-60
2022/11/05 04:03:36;;;;;;;21.27;11.00;;;;;;;;;;4993504;28;20034;-60
2022/11/05 04:14:15;;;;;;;26.45;12.27;;;;;;;;;;4982639;28;20463;-60
2022/11/05 04:24:52;;;;;;;27.75;13.38;;;;;;;;;;4991080;28;20049;-61
2022/11/05 04:27:17;;;;;;;34.22;13.60;;;;;;;;;;4982094;28;20038;-60
2022/11/05 04:32:27;;;;;;;20.25;11.20;;;;;;;;;;5007420;28;20065;-60
2022/11/05 04:34:52;;;;;;;20.63;12.00;;;;;;;;;;4972678;28;20043;-60
2022/11/05 04:37:17;;;;;;;24.50;12.63;;;;;;;;;;4993444;28;20048;-60
2022/11/05 04:39:43;;;;;;;25.13;12.75;;;;;;;;;;4979493;28;20027;-62
2022/11/05 04:42:08;;;;;;;23.92;12.23;;;;;;;;;;4980446;28;20034;-61
2022/11/05 04:44:33;;;;;;;26.33;13.38;;;;;;;;;;4990751;28;20052;-61
2022/11/05 04:46:59;;;;;;;26.70;13.60;;;;;;;;;;4981673;28;20514;-61
2022/11/05 04:49:24;;;;;;;27.58;14.27;;;;;;;;;;4990338;28;20021;-61
2022/11/05 04:51:49;;;;;;;27.15;15.43;;;;;;;;;;4976666;28;20045;-60
2022/11/05 04:54:15;;;;;;;26.77;14.95;;;;;;;;;;4982072;28;20100;-62
2022/11/05 04:56:40;;;;;;;24.98;13.82;;;;;;;;;;4988513;28;20459;-61
2022/11/05 04:59:05;;;;;;;26.77;14.63;;;;;;;;;;4977902;28;20035;-61
2022/11/05 05:01:31;;;;;;;28.63;15.57;;;;;;;;;;5019327;28;20075;-61
2022/11/05 05:03:56;;;;;;;28.00;15.07;;;;;;;;;;4999255;28;20399;-61
2022/11/05 05:06:22;;;;;;;30.23;15.50;;;;;;;;;;4974522;28;20031;-60
2022/11/05 05:08:50;;;;;;;35.42;17.05;;;;;;;;;;4985348;28;20395;-61
2022/11/05 05:11:18;;;;;;;30.50;15.85;;;;;;;;;;4989665;28;20499;-61
2022/11/05 05:13:43;;;;;;;34.45;16.67;;;;;;;;;;4975907;28;20031;-61
2022/11/05 05:16:17;;;;;;;31.25;17.92;;;;;;;;;;4987223;28;20187;-62
2022/11/05 05:18:42;;;;;;;34.85;16.92;;;;;;;;;;5004601;28;20046;-61
2022/11/05 05:23:52;;;;;;;31.20;16.63;;;;;;;;;;4973003;28;20057;-61
2022/11/05 05:26:17;;;;;;;32.08;16.17;;;;;;;;;;4987353;28;20343;-61
2022/11/05 05:28:42;;;;;;;33.25;16.65;;;;;;;;;;4998387;28;20033;-61
2022/11/05 05:31:08;;;;;;;31.27;16.70;;;;;;;;;;5003865;28;20040;-61
2022/11/05 05:33:34;;;;;;;30.13;17.50;;;;;;;;;;5002436;28;20046;-61
2022/11/05 05:36:00;;;;;;;35.60;17.92;;;;;;;;;;4995023;28;20040;-62
2022/11/05 05:38:27;;;;;;;35.25;17.92;;;;;;;;;;5011534;28;20032;-60
2022/11/05 05:40:57;;;;;;;33.38;18.40;;;;;;;;;;5006846;28;20029;-61
2022/11/05 05:43:22;;;;;;;29.70;17.13;;;;;;;;;;5011588;28;20076;-60
2022/11/05 05:45:47;;;;;;;37.30;17.92;;;;;;;;;;5000152;28;20034;-62
2022/11/05 05:48:13;;;;;;;38.15;19.02;;;;;;;;;;4982102;28;20379;-61
2022/11/05 05:50:38;;;;;;;31.45;17.15;;;;;;;;;;4991649;28;20065;-62
2022/11/05 05:53:04;;;;;;;32.70;17.83;;;;;;;;;;4989937;28;20039;-62
2022/11/05 05:55:29;;;;;;;33.65;17.38;;;;;;;;;;5002266;28;20049;-62
2022/11/05 05:57:54;;;;;;;31.75;17.90;;;;;;;;;;4993211;28;20504;-62
2022/11/05 06:00:20;;;;;;;36.33;18.73;;;;;;;;;;4993456;28;20264;-61
2022/11/05 06:02:45;;;;;;;33.42;17.45;;;;;;;;;;5011472;28;20037;-61
2022/11/05 06:05:10;;;;;;;29.20;17.65;;;;;;;;;;5008119;28;20438;-62
2022/11/05 06:07:36;;;;;;;33.67;18.58;;;;;;;;;;5003011;28;20030;-62
2022/11/05 06:10:01;;;;;;;37.45;18.42;;;;;;;;;;5000936;28;20040;-62
2022/11/05 06:12:28;;;;;;;33.78;17.40;;;;;;;;;;5011472;28;20057;-61
2022/11/05 06:14:54;;;;;;;35.80;18.17;;;;;;;;;;5010645;28;20034;-62
2022/11/05 06:17:19;;;;;;;37.70;17.02;;;;;;;;;;5012734;28;20030;-62
2022/11/05 06:19:44;;;;;;;33.63;17.55;;;;;;;;;;5012802;28;20034;-62
2022/11/05 06:22:10;;;;;;;31.52;17.52;;;;;;;;;;5013960;28;20105;-62
2022/11/05 06:24:35;;;;;;;33.92;17.83;;;;;;;;;;4996643;28;20084;-61
2022/11/05 06:27:00;;;;;;;30.88;16.95;;;;;;;;;;4994628;28;20030;-61
2022/11/05 06:29:26;;;;;;;33.80;17.08;;;;;;;;;;4987438;28;20038;-62
2022/11/05 06:31:51;;;;;;;33.45;17.17;;;;;;;;;;4993817;28;20034;-61
2022/11/05 06:34:17;;;;;;;37.67;18.38;;;;;;;;;;4982912;28;20034;-61
2022/11/05 06:36:42;;;;;;;31.48;16.45;;;;;;;;;;4991724;28;20034;-61
2022/11/05 06:39:11;;;;;;;38.65;17.90;;;;;;;;;;4982560;28;20046;-61
2022/11/05 06:41:37;;;;;;;36.15;18.83;;;;;;;;;;4985110;28;20081;-63
2022/11/05 06:44:03;;;;;;;37.65;19.45;;;;;;;;;;4993673;28;20074;-62
2022/11/05 06:46:28;;;;;;;42.05;20.13;;;;;;;;;;4986729;28;20038;-63
2022/11/05 06:48:53;;;;;;;39.88;20.13;;;;;;;;;;4992973;28;20053;-63
2022/11/05 06:51:19;;;;;;;48.05;21.73;;;;;;;;;;4978103;28;20506;-62
2022/11/05 06:53:45;;;;;;;41.40;20.95;;;;;;;;;;4999732;28;20161;-62
2022/11/05 06:56:10;;;;;;;43.22;21.20;;;;;;;;;;5011339;28;20057;-62
2022/11/05 06:58:36;;;;;;;37.90;22.13;;;;;;;;;;4993368;28;20030;-63
2022/11/05 07:01:03;;;;;;;36.25;19.75;;;;;;;;;;5013113;28;20029;-62
2022/11/05 07:03:29;;;;;;;36.75;19.42;;;;;;;;;;5013595;28;20075;-61
2022/11/05 07:05:57;;;;;;;36.42;18.33;;;;;;;;;;5005938;28;20426;-62
2022/11/05 07:08:23;;;;;;;37.33;19.08;;;;;;;;;;4994275;28;20022;-69
2022/11/05 07:10:48;;;;;;;38.45;19.73;;;;;;;;;;5014345;28;20030;-69
2022/11/05 07:13:14;;;;;;;41.22;20.55;;;;;;;;;;5012217;28;20093;-70
2022/11/05 07:15:39;;;;;;;42.40;19.95;;;;;;;;;;4994144;28;20046;-69
2022/11/05 07:18:08;;;;;;;38.10;20.02;;;;;;;;;;5005696;28;20482;-68
2022/11/05 07:20:34;;;;;;;41.70;20.58;;;;;;;;;;4975184;28;20041;-68
2022/11/05 07:23:01;;;;;;;42.28;20.40;;;;;;;;;;5009746;28;20104;-68
2022/11/05 07:25:27;;;;;;;40.63;21.70;;;;;;;;;;4974100;28;20051;-66
2022/11/05 07:27:52;;;;;;;41.03;21.92;;;;;;;;;;5014009;28;20041;-67
2022/11/05 07:30:18;;;;;;;44.30;22.52;;;;;;;;;;5012927;28;20026;-67
2022/11/05 07:32:43;;;;;;;45.47;21.90;;;;;;;;;;5005890;28;20439;-67
2022/11/05 07:35:09;;;;;;;51.33;23.92;;;;;;;;;;5011297;28;20037;-67
2022/11/05 07:37:52;;;;;;;45.40;22.02;;;;;;;;;;5011400;28;20025;-67
2022/11/05 07:40:18;;;;;;;44.78;22.02;;;;;;;;;;5011253;28;20108;-66
2022/11/05 07:42:45;;;;;;;49.40;23.00;;;;;;;;;;5008776;28;20462;-67
2022/11/05 07:45:11;;;;;;;51.42;24.38;;;;;;;;;;5010851;28;20475;-68
2022/11/05 07:47:38;;;;;;;56.28;28.30;;;;;;;;;;5012160;28;20071;-67
2022/11/05 07:50:05;;;;;;;64.05;28.60;;;;;;;;;;5007820;28;20459;-66
2022/11/05 07:52:31;;;;;;;50.78;26.15;;;;;;;;;;5011118;28;20052;-67
2022/11/05 07:54:57;;;;;;;56.40;25.70;;;;;;;;;;5011919;28;20505;-68
2022/11/05 07:57:22;;;;;;;52.95;26.00;;;;;;;;;;4998608;28;20026;-68
2022/11/05 07:59:47;;;;;;;50.42;25.25;;;;;;;;;;5007644;28;20144;-69
2022/11/05 08:02:13;;;;;;;50.38;24.02;;;;;;;;;;5011649;28;20117;-67
2022/11/05 08:04:41;;;;;;;55.10;25.98;;;;;;;;;;4993788;28;20038;-69
2022/11/05 08:07:06;;;;;;;52.28;25.48;;;;;;;;;;4983689;28;20063;-66
2022/11/05 08:09:32;;;;;;;56.58;26.15;;;;;;;;;;5008148;28;20028;-69
2022/11/05 08:11:57;;;;;;;52.55;27.17;;;;;;;;;;5010548;28;20168;-66
2022/11/05 08:14:22;;;;;;;55.58;26.70;;;;;;;;;;5006377;28;20051;-67
2022/11/05 08:16:48;;;;;;;48.90;25.08;;;;;;;;;;5003184;28;20104;-67
2022/11/05 08:19:13;;;;;;;44.65;23.13;;;;;;;;;;4992217;28;20049;-67
2022/11/05 08:21:38;;;;;;;59.13;27.50;;;;;;;;;;5002825;28;20061;-67
2022/11/05 08:24:04;;;;;;;53.55;26.20;;;;;;;;;;4994943;28;20125;-67
2022/11/05 08:26:29;;;;;;;48.40;23.92;;;;;;;;;;5002610;28;20038;-68
2022/11/05 08:28:54;;;;;;;51.17;25.70;;;;;;;;;;5009498;28;20026;-68
2022/11/05 08:31:20;;;;;;;47.15;24.10;;;;;;;;;;5004379;28;20109;-68
2022/11/05 08:33:45;;;;;;;50.40;26.33;;;;;;;;;;5010033;28;20041;-69
2022/11/05 08:36:11;;;;;;;51.30;25.33;;;;;;;;;;5005775;28;20029;-66
2022/11/05 08:38:36;;;;;;;46.47;21.08;;;;;;;;;;5005654;28;20085;-67
2022/11/05 08:41:02;;;;;;;45.55;23.25;;;;;;;;;;4999812;28;20029;-67
2022/11/05 08:43:27;;;;;;;42.22;21.65;;;;;;;;;;5007208;28;20651;-67
2022/11/05 08:45:53;;;;;;;40.75;20.80;;;;;;;;;;5010155;28;20065;-67
2022/11/05 08:48:19;;;;;;;45.58;22.83;;;;;;;;;;5001767;28;20030;-70
2022/11/05 08:50:46;;;;;;;43.88;22.63;;;;;;;;;;5001422;28;20041;-69
2022/11/05 08:53:13;;;;;;;43.50;22.10;;;;;;;;;;4987263;28;20113;-67
2022/11/05 08:55:38;;;;;;;40.38;22.65;;;;;;;;;;4989191;28;20109;-68
2022/11/05 08:58:11;;;;;;;36.65;19.70;;;;;;;;;;4998871;28;20176;-67
2022/11/05 09:00:37;;;;;;;35.85;17.88;;;;;;;;;;5007408;28;20033;-70
2022/11/05 09:03:05;;;;;;;35.00;19.30;;;;;;;;;;5012226;28;20029;-67
2022/11/05 09:05:36;;;;;;;34.70;17.70;;;;;;;;;;5010575;28;20026;-68
2022/11/05 09:08:06;;;;;;;31.42;17.92;;;;;;;;;;5003585;28;20506;-68
2022/11/05 09:10:31;;;;;;;33.28;18.20;;;;;;;;;;4973784;28;20027;-67
2022/11/05 09:12:57;;;;;;;34.95;17.30;;;;;;;;;;5010324;28;20041;-68
2022/11/05 09:15:23;;;;;;;32.67;16.77;;;;;;;;;;4997415;28;20030;-70
2022/11/05 09:17:49;;;;;;;24.85;13.10;;;;;;;;;;5000581;28;20133;-68
2022/11/05 09:20:14;;;;;;;28.13;14.48;;;;;;;;;;4990024;28;20053;-69
2022/11/05 09:22:39;;;;;;;26.33;14.07;;;;;;;;;;5010679;28;20521;-68
2022/11/05 09:25:05;;;;;;;22.08;12.23;;;;;;;;;;4999244;28;20053;-68
2022/11/05 09:27:31;;;;;;;22.95;10.70;;;;;;;;;;5011160;28;20091;-66
2022/11/05 09:29:56;;;;;;;23.92;13.60;;;;;;;;;;5005993;28;20031;-68
2022/11/05 09:32:22;;;;;;;24.08;12.63;;;;;;;;;;5002062;28;20513;-68
2022/11/05 09:34:48;;;;;;;17.83;10.13;;;;;;;;;;4975455;28;20038;-67
2022/11/05 09:37:14;;;;;;;23.17;11.85;;;;;;;;;;5009126;28;20064;-66
2022/11/05 09:39:40;;;;;;;20.30;12.13;;;;;;;;;;5006510;28;20022;-68
2022/11/05 09:42:14;;;;;;;21.60;12.25;;;;;;;;;;5010439;28;20052;-67
2022/11/05 09:44:48;;;;;;;18.42;8.77;;;;;;;;;;5004894;28;20480;-67
2022/11/05 09:47:21;;;;;;;13.23;7.35;;;;;;;;;;5006535;28;20038;-64
2022/11/05 09:49:50;;;;;;;16.08;8.15;;;;;;;;;;4979964;28;20035;-65
2022/11/05 09:52:20;;;;;;;18.00;9.18;;;;;;;;;;4996225;28;20030;-66
2022/11/05 09:54:47;;;;;;;16.77;8.85;;;;;;;;;;5002678;28;20052;-67
2022/11/05 09:57:22;;;;;;;15.77;8.80;;;;;;;;;;5003332;28;20030;-63
2022/11/05 09:59:52;;;;;;;21.63;9.02;;;;;;;;;;5012512;28;20030;-66
2022/11/05 10:02:40;;;;;;;17.55;9.13;;;;;;;;;;5009470;28;20026;-64
2022/11/05 10:05:09;;;;;;;11.75;6.93;;;;;;;;;;4999671;28;20029;-64
2022/11/05 10:07:42;;;;;;;18.73;7.65;;;;;;;;;;5011992;28;20034;-64
2022/11/05 10:10:34;;;;;;;12.60;6.15;;;;;;;;;;5013859;28;20037;-65
2022/11/05 10:13:06;;;;;;;14.50;7.30;;;;;;;;;;5014769;28;20094;-65
2022/11/05 10:15:39;;;;;;;13.68;7.50;;;;;;;;;;5012502;28;20144;-65
2022/11/05 10:18:20;;;;;;;13.35;6.97;;;;;;;;;;5013624;28;20442;-64
2022/11/05 10:20:46;;;;;;;13.00;6.72;;;;;;;;;;5007362;28;20041;-64
2022/11/05 10:23:15;;;;;;;14.57;7.00;;;;;;;;;;5014401;28;20418;-63
2022/11/05 10:25:44;;;;;;;13.63;7.07;;;;;;;;;;5013513;28;20026;-64
2022/11/05 10:28:16;;;;;;;13.07;6.05;;;;;;;;;;5011953;28;20045;-65
2022/11/05 10:30:45;;;;;;;11.10;5.80;;;;;;;;;;5012027;28;20088;-63
2022/11/05 10:33:12;;;;;;;8.82;5.63;;;;;;;;;;5012631;28;20029;-63
2022/11/05 10:35:50;;;;;;;10.57;5.65;;;;;;;;;;5012401;28;20654;-63
2022/11/05 10:38:16;;;;;;;11.32;6.00;;;;;;;;;;5003492;28;20045;-63
2022/11/05 10:41:19;;;;;;;14.48;5.47;;;;;;;;;;5014220;28;20033;-64
2022/11/05 10:43:57;;;;;;;9.25;5.28;;;;;;;;;;5012751;28;20099;-63
2022/11/05 10:46:38;;;;;;;9.60;4.80;;;;;;;;;;5013253;28;20437;-63
2022/11/05 10:49:17;;;;;;;;;;;;;;;;;;5009387;28;20041;-61
2022/11/05 10:51:44;;;;;;;8.70;4.35;;;;;;;;;;5014073;28;19909;-63
2022/11/05 10:54:20;;;;;;;11.73;4.80;;;;;;;;;;4998451;28;20597;-63
2022/11/05 10:56:46;;;;;;;11.13;4.65;;;;;;;;;;5012604;28;20122;-62
2022/11/05 10:59:26;;;;;;;12.10;4.82;;;;;;;;;;5007621;28;20120;-62
2022/11/05 11:01:58;;;;;;;9.45;4.55;;;;;;;;;;5013924;28;20038;-62
2022/11/05 11:04:26;;;;;;;8.10;4.00;;;;;;;;;;5006845;28;20038;-61
2022/11/05 11:06:57;;;;;;;11.98;4.80;;;;;;;;;;5008436;28;20081;-61
2022/11/05 11:09:22;;;;;;;8.07;4.13;;;;;;;;;;5012453;28;20037;-61
2022/11/05 11:11:58;;;;;;;7.35;4.53;;;;;;;;;;5014076;28;20030;-61
2022/11/05 11:14:23;;;;;;;10.45;4.35;;;;;;;;;;5012573;28;20033;-62
2022/11/05 11:16:50;;;;;;;8.02;4.18;;;;;;;;;;5016035;28;20084;-62
2022/11/05 11:19:30;;;;;;;8.38;3.80;;;;;;;;;;5012238;28;20435;-62
2022/11/05 11:22:01;;;;;;;7.63;4.40;;;;;;;;;;5011685;28;20108;-61
2022/11/05 11:24:27;;;;;;;7.30;3.58;;;;;;;;;;5012213;28;20053;-62
2022/11/05 11:26:52;;;;;;;9.15;3.28;;;;;;;;;;5012380;28;20034;-63
2022/11/05 11:29:25;;;;;;;9.75;3.75;;;;;;;;;;5002711;28;20125;-61
2022/11/05 11:31:57;;;;;;;10.20;4.00;;;;;;;;;;5005468;28;20034;-62
2022/11/05 11:34:33;;;;;;;8.48;3.85;;;;;;;;;;4997131;28;20104;-63
2022/11/05 11:37:13;;;;;;;8.93;3.85;;;;;;;;;;5025027;28;20368;-63
2022/11/05 11:39:42;;;;;;;7.13;3.50;;;;;;;;;;5011913;28;20095;-64
2022/11/05 11:42:16;;;;;;;9.38;3.80;;;;;;;;;;5010320;28;20049;-62
2022/11/05 11:44:44;;;;;;;7.93;3.75;;;;;;;;;;4996182;28;20049;-64
2022/11/05 11:47:16;;;;;;;9.90;3.85;;;;;;;;;;4990226;28;20373;-64
2022/11/05 11:49:50;;;;;;;7.93;3.55;;;;;;;;;;5001625;28;20033;-63
2022/11/05 11:52:28;;;;;;;7.75;3.25;;;;;;;;;;5019919;28;20505;-62
2022/11/05 11:55:11;;;;;;;8.95;3.97;;;;;;;;;;5013824;28;20080;-62
2022/11/05 11:57:52;;;;;;;7.93;3.50;;;;;;;;;;5018477;28;20033;-62
2022/11/05 12:00:22;;;;;;;5.97;3.20;;;;;;;;;;5016792;28;20034;-63
2022/11/05 12:02:56;;;;;;;5.75;3.30;;;;;;;;;;5017903;28;20038;-63
2022/11/05 12:05:42;;;;;;;7.22;3.63;;;;;;;;;;4998955;28;20106;-62
2022/11/05 12:08:23;;;;;;;6.60;3.00;;;;;;;;;;5012937;28;20454;-63
2022/11/05 12:11:33;;;;;;;9.70;3.87;;;;;;;;;;5010035;28;20463;-64
2022/11/05 12:14:07;;;;;;;6.25;3.83;;;;;;;;;;5026042;28;20295;-64
2022/11/05 12:16:42;;;;;;;10.48;4.07;;;;;;;;;;5005912;28;20037;-62
2022/11/05 12:19:25;;;;;;;8.02;4.05;;;;;;;;;;5010746;28;20483;-62
2022/11/05 12:22:16;;;;;;;8.98;4.60;;;;;;;;;;5000883;28;20503;-62
2022/11/05 12:25:03;;;;;;;9.23;3.97;;;;;;;;;;4994633;28;20034;-63
2022/11/05 12:27:40;;;;;;;8.23;4.07;;;;;;;;;;5005405;28;20046;-63
2022/11/05 12:30:14;;;;;;;11.77;4.80;;;;;;;;;;5003952;28;20418;-63
2022/11/05 12:33:10;;;;;;;7.82;3.78;;;;;;;;;;4992176;28;20031;-61
2022/11/05 12:35:52;;;;;;;9.32;4.07;;;;;;;;;;4975374;28;20113;-62
2022/11/05 12:38:35;;;;;;;10.95;4.20;;;;;;;;;;5012500;28;20112;-63
2022/11/05 12:41:07;;;;;;;8.15;4.28;;;;;;;;;;5004452;28;20047;-65
2022/11/05 12:43:32;;;;;;;10.07;4.28;;;;;;;;;;4991508;28;20101;-63
2022/11/05 12:46:18;;;;;;;8.35;3.60;;;;;;;;;;4994828;28;20487;-62
2022/11/05 12:49:16;;;;;;;8.98;4.00;;;;;;;;;;5011883;28;20021;-62
2022/11/05 12:52:06;;;;;;;12.18;4.03;;;;;;;;;;5004530;28;20045;-62
2022/11/05 12:54:47;;;;;;;8.40;3.90;;;;;;;;;;5011232;28;20057;-63
2022/11/05 12:57:13;;;;;;;;;;;;;;;;;;5001112;28;20030;-62
2022/11/05 12:59:45;;;;;;;9.98;3.92;;;;;;;;;;5012120;28;19913;-62
2022/11/05 13:02:29;;;;;;;7.97;4.10;;;;;;;;;;5010931;28;20040;-62
2022/11/05 13:05:04;;;;;;;7.93;3.97;;;;;;;;;;4974936;28;20034;-62
2022/11/05 13:07:33;;;;;;;10.55;4.82;;;;;;;;;;5001333;28;20425;-63
2022/11/05 13:10:25;;;;;;;9.45;4.65;;;;;;;;;;5012041;28;20033;-62
2022/11/05 13:12:59;;;;;;;9.57;4.30;;;;;;;;;;4995633;28;20049;-63
2022/11/05 13:15:29;;;;;;;8.93;3.83;;;;;;;;;;4991690;28;20395;-61
2022/11/05 13:18:03;;;;;;;7.38;4.18;;;;;;;;;;5004889;28;20173;-63
2022/11/05 13:20:32;;;;;;;10.35;4.15;;;;;;;;;;5009422;28;20029;-63
2022/11/05 13:23:05;;;;;;;8.43;4.07;;;;;;;;;;5012652;28;20517;-63
2022/11/05 13:25:36;;;;;;;8.27;4.00;;;;;;;;;;5013609;28;20050;-63
2022/11/05 13:28:36;;;;;;;8.07;3.28;;;;;;;;;;5014529;28;20030;-63
2022/11/05 13:31:05;;;;;;;7.97;4.00;;;;;;;;;;5004528;28;20038;-63
2022/11/05 13:33:36;;;;;;;10.07;4.00;;;;;;;;;;5002528;28;20026;-62
2022/11/05 13:38:58;;;;;;;6.82;3.58;;;;;;;;;;5012792;28;20041;-64
2022/11/05 13:41:39;;;;;;;8.40;3.80;;;;;;;;;;5014162;28;20033;-63
2022/11/05 13:44:25;;;;;;;7.15;3.90;;;;;;;;;;5014358;28;20029;-62
2022/11/05 13:47:00;;;;;;;8.20;3.92;;;;;;;;;;5004548;28;20037;-63
2022/11/05 13:50:01;;;;;;;7.25;3.60;;;;;;;;;;5009664;28;20038;-61
2022/11/05 13:52:44;;;;;;;8.52;3.80;;;;;;;;;;4992914;28;20037;-62
2022/11/05 13:55:34;;;;;;;7.65;3.38;;;;;;;;;;4987723;28;20065;-62
2022/11/05 13:57:59;;;;;;;9.98;3.35;;;;;;;;;;5003662;28;20048;-62
2022/11/05 14:00:27;;;;;;;6.03;2.70;;;;;;;;;;5015024;28;20029;-62
2022/11/05 14:02:55;;;;;;;6.22;3.42;;;;;;;;;;5010613;28;20033;-62
2022/11/05 14:05:23;;;;;;;6.13;3.10;;;;;;;;;;5007348;28;20034;-62
2022/11/05 14:07:49;;;;;;;7.38;2.97;;;;;;;;;;5006586;28;20301;-63
2022/11/05 14:10:37;;;;;;;8.75;3.22;;;;;;;;;;5015185;28;20036;-64
2022/11/05 14:13:37;;;;;;;8.57;3.58;;;;;;;;;;5006557;28;20502;-63
2022/11/05 14:16:18;;;;;;;4.63;2.72;;;;;;;;;;5010521;28;20120;-62
2022/11/05 14:19:05;;;;;;;6.43;2.65;;;;;;;;;;4989981;28;20042;-64
2022/11/05 14:21:46;;;;;;;5.38;2.60;;;;;;;;;;4999633;28;20041;-63
2022/11/05 14:24:21;;;;;;;5.40;2.67;;;;;;;;;;5009147;28;20057;-63
2022/11/05 14:27:01;;;;;;;6.88;3.05;;;;;;;;;;4995683;28;20050;-63
2022/11/05 14:29:47;;;;;;;7.80;3.05;;;;;;;;;;4979492;28;20072;-62
2022/11/05 14:32:43;;;;;;;6.88;3.17;;;;;;;;;;4995186;28;20475;-63
2022/11/05 14:35:14;;;;;;;7.63;3.17;;;;;;;;;;4995694;28;20486;-62
2022/11/05 14:37:50;;;;;;;8.48;3.28;;;;;;;;;;4992945;28;20046;-62
2022/11/05 14:40:31;;;;;;;5.72;2.95;;;;;;;;;;4995102;28;20065;-63
2022/11/05 14:43:03;;;;;;;8.15;4.22;;;;;;;;;;4994783;28;20435;-63
2022/11/05 14:45:36;;;;;;;7.57;3.05;;;;;;;;;;4994412;28;20045;-63
2022/11/05 14:48:05;;;;;;;8.43;3.15;;;;;;;;;;4994692;28;20068;-63
2022/11/05 14:50:33;;;;;;;4.63;2.63;;;;;;;;;;4994485;28;20044;-62
2022/11/05 14:53:11;;;;;;;4.82;2.88;;;;;;;;;;4994549;28;20563;-62
2022/11/05 14:55:40;;;;;;;5.85;2.85;;;;;;;;;;5008180;28;20034;-63
2022/11/05 14:58:25;;;;;;;7.78;2.97;;;;;;;;;;4994559;28;20042;-63
2022/11/05 15:00:52;;;;;;;7.47;3.15;;;;;;;;;;4994050;28;20054;-62
2022/11/05 15:03:38;;;;;;;6.80;3.17;;;;;;;;;;4994516;28;20061;-63
2022/11/05 15:06:04;;;;;;;7.35;3.40;;;;;;;;;;4994399;28;20467;-63
2022/11/05 15:08:50;;;;;;;6.82;3.00;;;;;;;;;;4994286;28;20041;-62
2022/11/05 15:11:31;;;;;;;9.20;3.40;;;;;;;;;;4993720;28;20037;-62
2022/11/05 15:14:05;;;;;;;5.60;2.90;;;;;;;;;;4993938;28;20058;-63
2022/11/05 15:16:40;;;;;;;8.82;3.17;;;;;;;;;;4992814;28;20034;-64
2022/11/05 15:19:16;;;;;;;5.70;3.42;;;;;;;;;;4993285;28;20039;-63
2022/11/05 15:21:43;;;;;;;7.72;3.17;;;;;;;;;;4977000;28;20058;-63
2022/11/05 15:24:12;;;;;;;7.10;3.33;;;;;;;;;;4982032;28;20066;-63
2022/11/05 15:26:47;;;;;;;8.88;3.88;;;;;;;;;;4995726;28;20558;-63
2022/11/05 15:29:21;;;;;;;8.50;3.17;;;;;;;;;;5007525;28;20076;-63
2022/11/05 15:31:47;;;;;;;6.72;3.30;;;;;;;;;;4993263;28;20049;-63
2022/11/05 15:34:16;;;;;;;7.65;3.40;;;;;;;;;;4993894;28;20105;-62
2022/11/05 15:36:47;;;;;;;8.18;3.30;;;;;;;;;;4993066;28;20034;-63
2022/11/05 15:39:31;;;;;;;6.03;3.10;;;;;;;;;;4993996;28;20038;-64